createdAt,value
2022-10-14T00:00:41.105Z,38.72
2022-10-14T00:03:07.565Z,39.10
2022-10-14T00:05:34.014Z,40.65
2022-10-14T00:08:00.418Z,40.22
2022-10-14T00:10:26.853Z,40.05
2022-10-14T00:12:53.343Z,41.65
2022-10-14T00:15:19.910Z,44.60
2022-10-14T00:17:46.351Z,45.08
2022-10-14T00:20:12.744Z,46.40
2022-10-14T00:22:39.203Z,47.17
2022-10-14T00:25:05.682Z,46.03
2022-10-14T00:27:32.123Z,44.55
2022-10-14T00:29:58.627Z,47.00
2022-10-14T00:32:25.050Z,47.88
2022-10-14T00:34:51.490Z,47.45
2022-10-14T00:37:17.893Z,48.20
2022-10-14T00:39:44.278Z,48.15
2022-10-14T00:42:15.000Z,49.70
2022-10-14T00:44:44.464Z,48.08
2022-10-14T00:47:10.867Z,48.95
2022-10-14T00:49:40.427Z,51.22
2022-10-14T00:52:25.131Z,49.65
2022-10-14T00:54:56.974Z,49.17
2022-10-14T00:57:25.351Z,48.50
2022-10-14T00:59:53.116Z,49.42
2022-10-14T01:02:19.503Z,48.70
2022-10-14T01:04:46.542Z,48.65
2022-10-14T01:11:40.686Z,50.55
2022-10-14T01:14:23.396Z,52.42
2022-10-14T01:19:56.292Z,49.60
2022-10-14T01:22:28.656Z,49.72
2022-10-14T01:25:02.668Z,52.95
2022-10-14T01:28:13.677Z,50.92
2022-10-14T01:30:48.576Z,50.55
2022-10-14T01:33:17.756Z,51.38
2022-10-14T01:35:57.620Z,50.15
2022-10-14T01:38:34.011Z,51.72
2022-10-14T01:41:06.757Z,50.55
2022-10-14T01:43:35.000Z,49.58
2022-10-14T01:46:04.211Z,49.08
2022-10-14T01:48:33.823Z,48.85
2022-10-14T01:51:03.183Z,48.47
2022-10-14T01:53:34.286Z,48.15
2022-10-14T01:56:02.160Z,49.15
2022-10-14T01:58:31.527Z,47.55
2022-10-14T02:00:57.911Z,48.08
2022-10-14T02:03:24.312Z,47.95
2022-10-14T02:06:00.971Z,47.35
2022-10-14T02:08:39.440Z,48.55
2022-10-14T02:11:11.930Z,48.55
2022-10-14T02:16:33.858Z,51.08
2022-10-14T02:19:13.647Z,52.92
2022-10-14T02:21:42.699Z,53.50
2022-10-14T02:24:35.266Z,49.63
2022-10-14T02:27:05.097Z,49.58
2022-10-14T02:29:32.177Z,48.20
2022-10-14T02:31:59.668Z,48.45
2022-10-14T02:34:27.287Z,45.72
2022-10-14T02:36:54.625Z,45.47
2022-10-14T02:39:41.827Z,46.47
2022-10-14T02:42:08.325Z,44.92
2022-10-14T02:44:34.764Z,46.22
2022-10-14T02:47:01.236Z,44.67
2022-10-14T02:49:27.666Z,46.90
2022-10-14T02:51:54.145Z,46.20
2022-10-14T02:54:20.567Z,45.72
2022-10-14T02:56:47.005Z,43.90
2022-10-14T02:59:13.390Z,45.17
2022-10-14T03:01:39.809Z,46.83
2022-10-14T03:04:06.224Z,45.65
2022-10-14T03:06:32.736Z,46.28
2022-10-14T03:08:59.117Z,45.88
2022-10-14T03:11:25.532Z,46.80
2022-10-14T03:13:51.896Z,46.40
2022-10-14T03:16:18.632Z,45.65
2022-10-14T03:18:45.092Z,45.10
2022-10-14T03:21:11.482Z,46.45
2022-10-14T03:23:37.885Z,45.92
2022-10-14T03:26:04.444Z,44.58
2022-10-14T03:28:30.875Z,45.20
2022-10-14T03:30:57.314Z,45.78
2022-10-14T03:33:25.995Z,45.80
2022-10-14T03:35:53.201Z,47.30
2022-10-14T03:38:19.603Z,47.15
2022-10-14T03:40:46.176Z,47.00
2022-10-14T03:43:12.674Z,46.55
2022-10-14T03:45:39.068Z,47.00
2022-10-14T03:48:05.630Z,45.00
2022-10-14T03:50:32.159Z,45.67
2022-10-14T03:52:58.650Z,44.22
2022-10-14T03:55:25.073Z,45.42
2022-10-14T03:57:51.771Z,43.42
2022-10-14T04:00:18.331Z,45.90
2022-10-14T04:02:44.729Z,46.10
2022-10-14T04:05:11.195Z,47.03
2022-10-14T04:07:37.906Z,46.80
2022-10-14T04:10:05.034Z,47.75
2022-10-14T04:12:31.692Z,50.20
2022-10-14T04:14:59.767Z,50.00
2022-10-14T04:17:26.497Z,49.95
2022-10-14T04:19:53.530Z,50.65
2022-10-14T04:22:20.419Z,49.05
2022-10-14T04:24:46.956Z,50.08
2022-10-14T04:27:13.352Z,51.35
2022-10-14T04:29:39.760Z,52.47
2022-10-14T04:32:06.178Z,50.85
2022-10-14T04:34:35.417Z,52.03
2022-10-14T04:37:01.814Z,54.13
2022-10-14T04:39:28.211Z,51.85
2022-10-14T04:41:54.604Z,50.80
2022-10-14T04:44:21.208Z,52.60
2022-10-14T04:46:47.636Z,52.13
2022-10-14T04:49:15.543Z,53.25
2022-10-14T04:51:42.901Z,53.83
2022-10-14T04:54:10.084Z,53.35
2022-10-14T04:56:36.622Z,52.70
2022-10-14T04:59:03.475Z,50.17
2022-10-14T05:01:33.805Z,51.60
2022-10-14T05:04:00.684Z,50.03
2022-10-14T05:06:27.144Z,50.13
2022-10-14T05:08:53.527Z,50.55
2022-10-14T05:11:20.057Z,49.85
2022-10-14T05:13:46.499Z,50.28
2022-10-14T05:16:13.235Z,48.88
2022-10-14T05:18:39.767Z,46.55
2022-10-14T05:21:06.231Z,47.40
2022-10-14T05:23:32.636Z,44.42
2022-10-14T05:25:59.781Z,46.97
2022-10-14T05:28:29.090Z,45.38
2022-10-14T05:30:55.688Z,44.10
2022-10-14T05:33:22.384Z,45.25
2022-10-14T05:36:03.893Z,46.42
2022-10-14T05:38:35.950Z,45.53
2022-10-14T05:41:02.869Z,48.35
2022-10-14T05:43:32.395Z,45.65
2022-10-14T05:45:59.567Z,47.22
2022-10-14T05:48:25.960Z,47.42
2022-10-14T05:50:52.491Z,47.55
2022-10-14T05:53:18.940Z,47.75
2022-10-14T05:55:45.412Z,48.83
2022-10-14T05:58:11.833Z,47.95
2022-10-14T06:00:38.287Z,47.95
2022-10-14T06:03:04.860Z,48.97
2022-10-14T06:05:35.193Z,48.13
2022-10-14T06:08:01.591Z,46.65
2022-10-14T06:10:28.051Z,48.08
2022-10-14T06:12:54.611Z,48.10
2022-10-14T06:15:21.180Z,47.60
2022-10-14T06:17:48.764Z,48.38
2022-10-14T06:20:15.154Z,47.83
2022-10-14T06:22:41.599Z,47.67
2022-10-14T06:25:08.504Z,49.03
2022-10-14T06:27:34.931Z,47.55
2022-10-14T06:30:01.310Z,49.72
2022-10-14T06:32:27.694Z,50.88
2022-10-14T06:34:54.162Z,50.33
2022-10-14T06:37:20.541Z,50.55
2022-10-14T06:39:47.140Z,50.35
2022-10-14T06:42:13.523Z,51.10
2022-10-14T06:44:39.947Z,48.83
2022-10-14T06:47:07.081Z,48.17
2022-10-14T06:49:33.585Z,48.88
2022-10-14T06:51:59.993Z,49.80
2022-10-14T06:54:26.364Z,49.88
2022-10-14T06:56:52.776Z,51.28
2022-10-14T06:59:19.613Z,52.17
2022-10-14T07:01:46.095Z,54.83
2022-10-14T07:04:12.527Z,53.85
2022-10-14T07:06:38.923Z,53.10
2022-10-14T07:09:08.274Z,52.85
2022-10-14T07:11:34.670Z,51.33
2022-10-14T07:14:01.129Z,52.55
2022-10-14T07:16:28.236Z,52.22
2022-10-14T07:18:54.697Z,52.45
2022-10-14T07:21:21.366Z,51.50
2022-10-14T07:23:47.817Z,52.72
2022-10-14T07:26:14.200Z,53.53
2022-10-14T07:28:40.709Z,54.70
2022-10-14T07:31:10.235Z,53.42
2022-10-14T07:38:38.065Z,52.15
2022-10-14T07:41:16.750Z,50.22
2022-10-14T07:43:47.537Z,48.17
2022-10-14T07:46:14.761Z,47.97
2022-10-14T07:48:57.727Z,47.13
2022-10-14T07:51:25.335Z,45.03
2022-10-14T07:53:53.008Z,43.35
2022-10-14T07:56:21.466Z,42.53
2022-10-14T07:58:48.133Z,41.70
2022-10-14T08:01:16.056Z,41.40
2022-10-14T08:03:43.281Z,41.00
2022-10-14T08:06:09.767Z,40.35
2022-10-14T08:08:36.175Z,39.92
2022-10-14T08:11:13.041Z,33.30
2022-10-14T08:13:43.411Z,30.83
2022-10-14T08:16:17.012Z,31.27
2022-10-14T08:18:44.123Z,31.33
2022-10-14T08:21:11.010Z,29.73
2022-10-14T08:23:37.404Z,28.30
2022-10-14T08:26:03.971Z,27.88
2022-10-14T08:28:30.401Z,28.38
2022-10-14T08:30:56.922Z,26.92
2022-10-14T08:33:23.414Z,26.17
2022-10-14T08:35:53.869Z,27.17
2022-10-14T08:38:25.072Z,25.60
2022-10-14T08:41:13.484Z,26.02
2022-10-14T08:44:04.640Z,26.20
2022-10-14T08:46:40.931Z,23.75
2022-10-14T08:49:16.364Z,24.20
2022-10-14T08:51:45.278Z,20.40
2022-10-14T08:54:16.720Z,20.38
2022-10-14T08:56:43.473Z,19.52
2022-10-14T08:59:14.220Z,19.25
2022-10-14T09:01:49.886Z,19.50
2022-10-14T09:04:16.785Z,19.33
2022-10-14T09:06:45.608Z,19.55
2022-10-14T09:09:40.348Z,20.27
2022-10-14T09:12:12.152Z,20.10
2022-10-14T09:14:42.880Z,20.77
2022-10-14T09:17:15.740Z,19.65
2022-10-14T09:19:47.827Z,18.00
2022-10-14T09:22:15.423Z,16.55
2022-10-14T09:24:42.166Z,16.50
2022-10-14T09:27:17.601Z,13.63
2022-10-14T09:30:00.863Z,13.65
2022-10-14T09:32:40.428Z,12.70
2022-10-14T09:35:37.636Z,12.20
2022-10-14T09:38:04.342Z,8.52
2022-10-14T09:40:41.791Z,7.75
2022-10-14T09:43:08.059Z,6.40
2022-10-14T09:46:00.098Z,6.85
2022-10-14T09:48:43.698Z,6.07
2022-10-14T09:51:18.731Z,6.13
2022-10-14T09:53:56.024Z,6.20
2022-10-14T09:56:38.983Z,5.53
2022-10-14T09:59:19.593Z,5.50
2022-10-14T10:02:05.526Z,5.40
2022-10-14T10:04:31.850Z,4.90
2022-10-14T10:07:00.334Z,5.10
2022-10-14T10:09:26.980Z,5.10
2022-10-14T10:11:53.937Z,4.82
2022-10-14T10:14:24.335Z,4.60
2022-10-14T10:17:12.692Z,4.75
2022-10-14T10:19:43.030Z,4.70
2022-10-14T10:22:26.445Z,4.32
2022-10-14T10:25:05.937Z,3.80
2022-10-14T10:27:37.259Z,3.63
2022-10-14T10:30:17.846Z,3.45
2022-10-14T10:32:56.268Z,3.67
2022-10-14T10:35:28.234Z,3.65
2022-10-14T10:38:03.152Z,3.05
2022-10-14T10:40:40.048Z,2.90
2022-10-14T10:43:36.914Z,2.25
2022-10-14T10:46:13.902Z,2.20
2022-10-14T10:49:01.896Z,2.38
2022-10-14T10:51:54.697Z,2.55
2022-10-14T10:54:50.310Z,2.60
2022-10-14T10:57:42.900Z,2.20
2022-10-14T11:00:20.784Z,2.20
2022-10-14T11:03:10.185Z,2.00
2022-10-14T11:05:57.323Z,2.20
2022-10-14T11:09:07.126Z,2.38
2022-10-14T11:12:00.688Z,2.47
2022-10-14T11:15:01.195Z,2.42
2022-10-14T11:17:29.760Z,2.22
2022-10-14T11:20:05.378Z,2.50
2022-10-14T11:22:40.731Z,2.58
2022-10-14T11:25:25.081Z,2.25
2022-10-14T11:28:01.150Z,1.75
2022-10-14T11:30:46.359Z,1.75
2022-10-14T11:33:35.976Z,2.00
2022-10-14T11:36:09.710Z,1.88
2022-10-14T11:39:02.496Z,1.65
2022-10-14T11:44:11.989Z,1.55
2022-10-14T11:46:43.013Z,1.42
2022-10-14T11:49:28.987Z,1.52
2022-10-14T11:51:55.291Z,1.50
2022-10-14T11:54:29.482Z,1.38
2022-10-14T11:57:15.493Z,1.40
2022-10-14T12:00:08.657Z,1.40
2022-10-14T12:02:42.153Z,1.52
2022-10-14T12:05:15.201Z,1.50
2022-10-14T12:07:46.870Z,1.30
2022-10-14T12:10:20.630Z,1.40
2022-10-14T12:12:47.219Z,1.48
2022-10-14T12:15:21.559Z,1.30
2022-10-14T12:17:54.189Z,1.40
2022-10-14T12:20:29.576Z,1.23
2022-10-14T12:22:57.419Z,1.30
2022-10-14T12:25:26.330Z,1.20
2022-10-14T12:27:54.984Z,1.00
2022-10-14T12:30:34.141Z,1.42
2022-10-14T12:33:03.918Z,1.00
2022-10-14T12:35:52.248Z,0.90
2022-10-14T12:38:20.599Z,1.02
2022-10-14T12:40:50.516Z,1.10
2022-10-14T12:43:23.494Z,0.90
2022-10-14T12:46:14.015Z,1.02
2022-10-14T12:48:51.417Z,0.90
2022-10-14T12:51:23.255Z,0.90
2022-10-14T12:54:05.021Z,1.10
2022-10-14T12:56:38.572Z,1.10
2022-10-14T12:59:07.964Z,0.80
2022-10-14T13:01:36.434Z,0.90
2022-10-14T13:04:07.019Z,0.77
2022-10-14T13:06:36.553Z,0.80
2022-10-14T13:09:11.995Z,0.60
2022-10-14T13:11:43.746Z,0.90
2022-10-14T13:14:31.818Z,0.80
2022-10-14T13:16:59.648Z,0.68
2022-10-14T13:19:35.138Z,0.55
2022-10-14T13:22:03.258Z,0.55
2022-10-14T13:24:32.248Z,0.75
2022-10-14T13:27:22.978Z,0.85
2022-10-14T13:30:05.028Z,0.73
2022-10-14T13:32:51.673Z,0.57
2022-10-14T13:35:34.398Z,0.60
2022-10-14T13:38:06.899Z,0.60
2022-10-14T13:43:12.721Z,0.63
2022-10-14T13:45:42.870Z,0.50
2022-10-14T13:48:14.630Z,0.50
2022-10-14T13:50:42.032Z,0.60
2022-10-14T13:53:15.546Z,0.50
2022-10-14T13:55:51.587Z,0.50
2022-10-14T13:58:24.340Z,0.52
2022-10-14T14:00:59.779Z,0.60
2022-10-14T14:03:35.705Z,0.70
2022-10-14T14:06:08.750Z,0.63
2022-10-14T14:08:40.878Z,0.90
2022-10-14T14:11:16.866Z,0.80
2022-10-14T14:14:20.314Z,0.80
2022-10-14T14:16:54.957Z,0.90
2022-10-14T14:19:46.307Z,0.90
2022-10-14T14:22:23.338Z,0.90
2022-10-14T14:24:50.821Z,0.90
2022-10-14T14:27:19.531Z,1.08
2022-10-14T14:29:48.455Z,1.10
2022-10-14T14:32:17.924Z,1.10
2022-10-14T14:34:46.833Z,0.70
2022-10-14T14:40:21.562Z,0.90
2022-10-14T14:42:51.562Z,0.80
2022-10-14T14:45:25.307Z,0.90
2022-10-14T14:47:53.900Z,1.05
2022-10-14T14:50:30.478Z,1.20
2022-10-14T14:53:02.719Z,0.93
2022-10-14T14:55:42.194Z,0.90
2022-10-14T14:58:38.463Z,0.80
2022-10-14T15:01:06.685Z,1.00
2022-10-14T15:03:34.835Z,2.10
2022-10-14T15:06:03.216Z,1.15
2022-10-14T15:08:32.984Z,1.00
2022-10-14T15:10:59.942Z,1.10
2022-10-14T15:13:39.940Z,0.70
2022-10-14T15:16:07.170Z,0.93
2022-10-14T15:18:37.392Z,1.08
2022-10-14T15:21:09.741Z,1.23
2022-10-14T15:23:45.758Z,1.10
2022-10-14T15:26:35.985Z,0.90
2022-10-14T15:29:14.244Z,1.38
2022-10-14T15:31:42.869Z,1.23
2022-10-14T15:34:18.553Z,1.13
2022-10-14T15:36:45.419Z,1.30
2022-10-14T15:39:14.957Z,1.17
2022-10-14T15:41:41.809Z,1.60
2022-10-14T15:44:08.208Z,2.05
2022-10-14T15:46:56.927Z,2.17
2022-10-14T15:49:30.561Z,3.05
2022-10-14T15:51:56.973Z,2.97
2022-10-14T15:54:27.193Z,3.03
2022-10-14T15:56:57.494Z,3.05
2022-10-14T15:59:24.497Z,3.83
2022-10-14T16:01:51.378Z,3.80
2022-10-14T16:04:22.218Z,3.92
2022-10-14T16:06:50.506Z,4.53
2022-10-14T16:09:17.322Z,4.88
2022-10-14T16:11:43.748Z,5.32
2022-10-14T16:14:12.609Z,5.30
2022-10-14T16:16:44.724Z,5.63
2022-10-14T16:19:11.798Z,6.43
2022-10-14T16:21:39.008Z,5.93
2022-10-14T16:24:06.244Z,6.80
2022-10-14T16:26:32.776Z,6.88
2022-10-14T16:29:00.427Z,6.93
2022-10-14T16:31:26.884Z,6.43
2022-10-14T16:33:54.950Z,7.47
2022-10-14T16:36:23.132Z,7.95
2022-10-14T16:38:49.970Z,8.07
2022-10-14T16:41:16.536Z,8.27
2022-10-14T16:43:43.069Z,8.63
2022-10-14T16:46:13.213Z,8.90
2022-10-14T16:48:41.905Z,8.30
2022-10-14T16:51:08.346Z,9.25
2022-10-14T16:53:40.790Z,8.95
2022-10-14T16:56:33.029Z,9.52
2022-10-14T16:59:00.005Z,10.05
2022-10-14T17:01:26.849Z,10.00
2022-10-14T17:03:54.515Z,10.48
2022-10-14T17:06:23.984Z,10.25
2022-10-14T17:08:50.913Z,10.27
2022-10-14T17:11:17.923Z,10.30
2022-10-14T17:13:44.424Z,9.45
2022-10-14T17:16:11.065Z,10.75
2022-10-14T17:18:37.650Z,9.85
2022-10-14T17:21:09.008Z,10.38
2022-10-14T17:23:36.165Z,11.38
2022-10-14T17:26:04.222Z,11.57
2022-10-14T17:28:31.094Z,10.95
2022-10-14T17:30:58.482Z,11.68
2022-10-14T17:33:26.109Z,12.30
2022-10-14T17:35:59.753Z,12.13
2022-10-14T17:38:29.702Z,12.40
2022-10-14T17:41:03.354Z,11.95
2022-10-14T17:43:29.768Z,12.68
2022-10-14T17:48:42.139Z,12.13
2022-10-14T17:51:12.357Z,12.23
2022-10-14T17:53:39.545Z,12.43
2022-10-14T17:56:10.639Z,12.60
2022-10-14T17:58:37.461Z,13.48
2022-10-14T18:01:09.724Z,13.20
2022-10-14T18:03:38.748Z,13.43
2022-10-14T18:06:09.427Z,12.65
2022-10-14T18:08:35.800Z,13.00
2022-10-14T18:11:08.510Z,13.55
2022-10-14T18:13:37.539Z,13.52
2022-10-14T18:16:09.050Z,13.15
2022-10-14T18:18:36.180Z,12.52
2022-10-14T18:21:02.811Z,13.32
2022-10-14T18:23:30.701Z,13.60
2022-10-14T18:26:13.433Z,12.77
2022-10-14T18:28:42.722Z,13.82
2022-10-14T18:31:12.498Z,13.27
2022-10-14T18:33:39.465Z,12.75
2022-10-14T18:36:07.333Z,12.63
2022-10-14T18:38:34.111Z,12.27
2022-10-14T18:41:05.342Z,13.20
2022-10-14T18:43:31.904Z,13.85
2022-10-14T18:46:06.960Z,12.98
2022-10-14T18:48:33.429Z,13.45
2022-10-14T18:51:00.644Z,13.35
2022-10-14T18:53:27.961Z,13.80
2022-10-14T18:55:58.018Z,13.80
2022-10-14T18:58:26.035Z,14.60
2022-10-14T19:00:52.583Z,14.32
2022-10-14T19:03:19.087Z,13.98
2022-10-14T19:05:47.044Z,13.65
2022-10-14T19:10:40.333Z,14.93
2022-10-14T19:13:08.059Z,14.55
2022-10-14T19:15:45.223Z,15.10
2022-10-14T19:18:14.200Z,15.43
2022-10-14T19:20:41.851Z,15.32
2022-10-14T19:23:08.654Z,14.45
2022-10-14T19:25:36.203Z,14.35
2022-10-14T19:28:02.661Z,13.35
2022-10-14T19:30:29.051Z,12.80
2022-10-14T19:32:55.543Z,12.82
2022-10-14T19:35:22.092Z,13.02
2022-10-14T19:37:48.620Z,13.13
2022-10-14T19:40:17.725Z,11.85
2022-10-14T19:42:46.517Z,12.27
2022-10-14T19:45:12.950Z,12.52
2022-10-14T19:47:39.342Z,12.82
2022-10-14T19:50:06.450Z,13.18
2022-10-14T19:52:33.032Z,12.50
2022-10-14T19:54:59.527Z,12.20
2022-10-14T19:57:25.912Z,11.90
2022-10-14T19:59:52.404Z,12.25
2022-10-14T20:02:18.782Z,12.77
2022-10-14T20:04:45.187Z,13.10
2022-10-14T20:07:13.249Z,12.52
2022-10-14T20:09:39.744Z,13.13
2022-10-14T20:12:06.256Z,13.00
2022-10-14T20:14:32.848Z,13.85
2022-10-14T20:16:59.545Z,14.98
2022-10-14T20:19:25.938Z,14.57
2022-10-14T20:21:52.389Z,14.80
2022-10-14T20:24:18.926Z,14.95
2022-10-14T20:26:46.561Z,15.65
2022-10-14T20:29:12.982Z,15.63
2022-10-14T20:31:39.414Z,15.07
2022-10-14T20:34:11.148Z,16.55
2022-10-14T20:36:37.960Z,16.50
2022-10-14T20:39:04.411Z,16.48
2022-10-14T20:41:30.774Z,16.40
2022-10-14T20:43:57.255Z,15.70
2022-10-14T20:46:25.047Z,16.92
2022-10-14T20:48:58.155Z,16.58
2022-10-14T20:51:25.011Z,16.80
2022-10-14T20:54:00.396Z,17.08
2022-10-14T20:56:31.114Z,17.42
2022-10-14T20:58:58.722Z,18.75
2022-10-14T21:01:26.492Z,18.58
2022-10-14T21:03:53.558Z,19.88
2022-10-14T21:06:22.746Z,20.95
2022-10-14T21:08:50.363Z,20.17
2022-10-14T21:11:22.162Z,21.77
2022-10-14T21:13:50.771Z,20.35
2022-10-14T21:16:21.143Z,19.98
2022-10-14T21:18:56.794Z,21.30
2022-10-14T21:21:26.560Z,21.05
2022-10-14T21:23:53.724Z,21.67
2022-10-14T21:26:20.273Z,23.05
2022-10-14T21:28:46.736Z,23.15
2022-10-14T21:31:17.345Z,24.13
2022-10-14T21:33:45.530Z,24.65
2022-10-14T21:36:13.752Z,25.20
2022-10-14T21:38:40.174Z,25.42
2022-10-14T21:41:07.320Z,27.05
2022-10-14T21:43:38.666Z,26.02
2022-10-14T21:46:10.964Z,26.23
2022-10-14T21:48:37.593Z,27.35
2022-10-14T21:51:08.877Z,27.52
2022-10-14T21:53:35.412Z,27.13
2022-10-14T21:56:01.997Z,27.77
2022-10-14T21:58:28.575Z,27.15
2022-10-14T22:01:15.844Z,27.02
2022-10-14T22:03:43.763Z,28.58
2022-10-14T22:06:14.320Z,28.58
2022-10-14T22:08:42.731Z,29.42
2022-10-14T22:11:28.944Z,29.15
2022-10-14T22:13:56.931Z,29.38
2022-10-14T22:16:23.439Z,29.58
2022-10-14T22:18:51.147Z,30.25
2022-10-14T22:21:20.174Z,29.58
2022-10-14T22:23:48.164Z,28.15
2022-10-14T22:26:16.689Z,29.45
2022-10-14T22:28:43.443Z,30.67
2022-10-14T22:31:18.319Z,28.52
2022-10-14T22:33:45.266Z,31.80
2022-10-14T22:36:23.560Z,30.50
2022-10-14T22:38:52.547Z,31.65
2022-10-14T22:41:19.067Z,30.35
2022-10-14T22:43:49.700Z,32.38
2022-10-14T22:46:19.478Z,31.98
2022-10-14T22:48:46.680Z,31.52
2022-10-14T22:51:15.825Z,32.05
2022-10-14T22:53:44.046Z,32.83
2022-10-14T22:56:14.572Z,34.17
2022-10-14T22:58:40.963Z,32.72
2022-10-14T23:01:15.614Z,33.22
2022-10-14T23:03:42.408Z,34.80
2022-10-14T23:06:11.200Z,34.25
2022-10-14T23:08:38.246Z,34.60
2022-10-14T23:11:05.732Z,34.80
2022-10-14T23:13:32.527Z,33.97
2022-10-14T23:16:04.535Z,35.03
2022-10-14T23:18:33.378Z,35.40
2022-10-14T23:21:07.277Z,34.05
2022-10-14T23:23:33.655Z,35.20
2022-10-14T23:26:00.079Z,34.03
2022-10-14T23:28:26.602Z,34.47
2022-10-14T23:30:53.065Z,34.15
2022-10-14T23:33:19.471Z,34.22
2022-10-14T23:35:45.907Z,34.78
2022-10-14T23:38:12.642Z,34.67
2022-10-14T23:40:39.267Z,36.05
2022-10-14T23:43:05.921Z,35.42
2022-10-14T23:45:32.494Z,36.92
2022-10-14T23:47:58.878Z,35.58
2022-10-14T23:50:25.547Z,35.63
2022-10-14T23:52:51.942Z,36.58
2022-10-14T23:55:18.400Z,35.53
2022-10-14T23:57:44.800Z,37.15
